Fond du Lac, WI

4:39 AM CST on March 05, 2015 (GMT -0600)
Hunters Grove | Change Station
CLOSE
Current Station
Personal Weather Station
Location: Fond Du Lac, WI
Elevation: 764 ft
Nearby Weather Stations

Elev 764 ft 43.79 °N, 88.39 °W | Updated 13 minutes ago

Clear
Clear
-6.0 °F
Feels Like -6 °F
N
0.0
Wind Variable Wind from NE

Today
High -- | Low -- °F
--% Chance of Precip.
Yesterday
High -- | Low -- °F
Precip. -- in
6:23 AM 5:46 PM
Full, 100% visible
Pressure 30.43 in
Visibility 9.0 miles
Clouds Clear
Windchill -6 °F
Dew Point -11 °F
Humidity 79%
Rainfall in
Snow Depth Not available.
UV 0 out of 12
Pollen .40 out of 12
Air Quality Not available.
Flu Activity Not available.
METAR KFLD 050953Z AUTO 30006KT 9SM -SN CLR M18/M24 A3037 RMK AO2 SLP303 P0000 T11831244

More Conditions Fewer Conditions

Pressure 30.43 in
Visibility 9.0 miles
Clouds Clear
Windchill -6 °F
Dew Point -11 °F
Humidity 79%
Rainfall in
Snow Depth Not available.
UV 0 out of 12
Pollen .40 out of 12
Air Quality Not available.
Flu Activity Not available.
METAR KFLD 050953Z AUTO 30006KT 9SM -SN CLR M18/M24 A3037 RMK AO2 SLP303 P0000 T11831244

More Conditions Fewer Conditions

10-Day Weather Forecast

Almanac

Astronomy

Mar. 05, 2015 Rise Set
Actual Time
Civil Twilight
Nautical Twilight
Astronomical Twilight
Moon
Length of Visible Light
Length of Day
Tomorrow will be .
, % of the Moon is Illuminated

Today's Extremes

State Highs State Lows

Community

WunderPhotos

Upload Photos

1,802,714 photos uploaded!

WunderBlogs® & News

Nearby

Air Quality

  Air Quality AQ Index Pollutant
Not available.

Snow Depth

Station Depth Elevation

Earthquake Activity

City Distance Mag. Time & Date
Minimum magnitude displayed is 2.5.

Coastal Water Temperatures

Place Temperature

Nearby Weather Stations